sensor_id;sensor_type;location;lat;lon;timestamp;P1;durP1;ratioP1;P2;durP2;ratioP2
13588;SDS011;6865;52.552;13.434;2023-07-13T00:00:26;8.65;;;4.30;;
13588;SDS011;6865;52.552;13.434;2023-07-13T00:02:53;7.97;;;4.10;;
13588;SDS011;6865;52.552;13.434;2023-07-13T00:05:21;7.13;;;4.47;;
13588;SDS011;6865;52.552;13.434;2023-07-13T00:07:49;8.20;;;4.70;;
13588;SDS011;6865;52.552;13.434;2023-07-13T00:10:17;9.68;;;4.40;;
13588;SDS011;6865;52.552;13.434;2023-07-13T00:12:44;7.07;;;3.92;;
13588;SDS011;6865;52.552;13.434;2023-07-13T00:15:16;7.10;;;4.20;;
13588;SDS011;6865;52.552;13.434;2023-07-13T00:17:49;8.45;;;4.00;;
13588;SDS011;6865;52.552;13.434;2023-07-13T00:20:17;5.20;;;3.97;;
13588;SDS011;6865;52.552;13.434;2023-07-13T00:22:44;7.88;;;3.58;;
13588;SDS011;6865;52.552;13.434;2023-07-13T00:25:11;6.95;;;3.65;;
13588;SDS011;6865;52.552;13.434;2023-07-13T00:27:39;6.57;;;3.75;;
13588;SDS011;6865;52.552;13.434;2023-07-13T00:30:07;7.28;;;3.60;;
13588;SDS011;6865;52.552;13.434;2023-07-13T00:32:35;6.50;;;3.80;;
13588;SDS011;6865;52.552;13.434;2023-07-13T00:35:02;4.60;;;3.08;;
13588;SDS011;6865;52.552;13.434;2023-07-13T00:37:30;5.47;;;3.35;;
13588;SDS011;6865;52.552;13.434;2023-07-13T00:39:58;4.63;;;3.33;;
13588;SDS011;6865;52.552;13.434;2023-07-13T00:42:24;6.28;;;3.60;;
13588;SDS011;6865;52.552;13.434;2023-07-13T00:45:05;6.50;;;3.30;;
13588;SDS011;6865;52.552;13.434;2023-07-13T00:47:38;4.97;;;2.90;;
13588;SDS011;6865;52.552;13.434;2023-07-13T00:50:06;6.03;;;3.42;;
13588;SDS011;6865;52.552;13.434;2023-07-13T00:52:35;4.40;;;3.42;;
13588;SDS011;6865;52.552;13.434;2023-07-13T00:55:04;5.45;;;3.42;;
13588;SDS011;6865;52.552;13.434;2023-07-13T00:57:31;5.22;;;3.03;;
13588;SDS011;6865;52.552;13.434;2023-07-13T00:59:58;6.10;;;3.65;;
13588;SDS011;6865;52.552;13.434;2023-07-13T01:02:33;4.95;;;3.47;;
13588;SDS011;6865;52.552;13.434;2023-07-13T01:05:01;6.47;;;3.13;;
13588;SDS011;6865;52.552;13.434;2023-07-13T01:07:28;6.50;;;3.40;;
13588;SDS011;6865;52.552;13.434;2023-07-13T01:09:54;5.60;;;3.15;;
13588;SDS011;6865;52.552;13.434;2023-07-13T01:12:21;7.55;;;3.30;;
13588;SDS011;6865;52.552;13.434;2023-07-13T01:14:48;7.15;;;3.35;;
13588;SDS011;6865;52.552;13.434;2023-07-13T01:17:15;5.63;;;3.33;;
13588;SDS011;6865;52.552;13.434;2023-07-13T01:19:43;5.00;;;3.30;;
13588;SDS011;6865;52.552;13.434;2023-07-13T01:22:12;4.40;;;3.00;;
13588;SDS011;6865;52.552;13.434;2023-07-13T01:24:42;8.35;;;3.40;;
13588;SDS011;6865;52.552;13.434;2023-07-13T01:27:11;5.88;;;3.40;;
13588;SDS011;6865;52.552;13.434;2023-07-13T01:29:40;5.70;;;3.40;;
13588;SDS011;6865;52.552;13.434;2023-07-13T01:32:09;5.93;;;3.47;;
13588;SDS011;6865;52.552;13.434;2023-07-13T01:34:37;5.55;;;3.53;;
13588;SDS011;6865;52.552;13.434;2023-07-13T01:37:04;5.30;;;3.10;;
13588;SDS011;6865;52.552;13.434;2023-07-13T01:39:31;5.10;;;3.38;;
13588;SDS011;6865;52.552;13.434;2023-07-13T01:41:58;4.10;;;3.25;;
13588;SDS011;6865;52.552;13.434;2023-07-13T01:44:25;4.47;;;3.47;;
13588;SDS011;6865;52.552;13.434;2023-07-13T01:46:52;4.85;;;3.40;;
13588;SDS011;6865;52.552;13.434;2023-07-13T01:49:19;5.47;;;3.70;;
13588;SDS011;6865;52.552;13.434;2023-07-13T01:51:45;5.45;;;3.50;;
13588;SDS011;6865;52.552;13.434;2023-07-13T01:54:12;5.07;;;3.67;;
13588;SDS011;6865;52.552;13.434;2023-07-13T01:56:39;6.05;;;3.58;;
13588;SDS011;6865;52.552;13.434;2023-07-13T01:59:08;4.65;;;3.40;;
13588;SDS011;6865;52.552;13.434;2023-07-13T02:01:35;4.93;;;3.45;;
13588;SDS011;6865;52.552;13.434;2023-07-13T02:04:02;7.38;;;3.97;;
13588;SDS011;6865;52.552;13.434;2023-07-13T02:06:29;5.55;;;3.35;;
13588;SDS011;6865;52.552;13.434;2023-07-13T02:08:55;6.57;;;3.72;;
13588;SDS011;6865;52.552;13.434;2023-07-13T02:11:22;6.82;;;3.90;;
13588;SDS011;6865;52.552;13.434;2023-07-13T02:13:49;5.45;;;3.40;;
13588;SDS011;6865;52.552;13.434;2023-07-13T02:16:16;4.45;;;3.30;;
13588;SDS011;6865;52.552;13.434;2023-07-13T02:18:42;5.55;;;3.30;;
13588;SDS011;6865;52.552;13.434;2023-07-13T02:21:09;4.78;;;2.80;;
13588;SDS011;6865;52.552;13.434;2023-07-13T02:23:36;7.00;;;3.58;;
13588;SDS011;6865;52.552;13.434;2023-07-13T02:26:03;5.15;;;3.53;;
13588;SDS011;6865;52.552;13.434;2023-07-13T02:28:30;5.53;;;3.65;;
13588;SDS011;6865;52.552;13.434;2023-07-13T02:31:03;5.85;;;3.22;;
13588;SDS011;6865;52.552;13.434;2023-07-13T02:33:38;5.63;;;3.20;;
13588;SDS011;6865;52.552;13.434;2023-07-13T02:36:05;5.32;;;3.47;;
13588;SDS011;6865;52.552;13.434;2023-07-13T02:38:33;5.35;;;3.10;;
13588;SDS011;6865;52.552;13.434;2023-07-13T02:41:02;6.00;;;3.13;;
13588;SDS011;6865;52.552;13.434;2023-07-13T02:43:30;6.60;;;3.30;;
13588;SDS011;6865;52.552;13.434;2023-07-13T02:45:58;5.53;;;3.00;;
13588;SDS011;6865;52.552;13.434;2023-07-13T02:48:30;4.32;;;3.25;;
13588;SDS011;6865;52.552;13.434;2023-07-13T02:50:56;4.63;;;2.95;;
13588;SDS011;6865;52.552;13.434;2023-07-13T02:53:23;3.88;;;3.05;;
13588;SDS011;6865;52.552;13.434;2023-07-13T02:55:50;6.15;;;3.65;;
13588;SDS011;6865;52.552;13.434;2023-07-13T02:58:16;4.68;;;3.10;;
13588;SDS011;6865;52.552;13.434;2023-07-13T03:00:43;4.22;;;3.20;;
13588;SDS011;6865;52.552;13.434;2023-07-13T03:03:12;5.53;;;3.60;;
13588;SDS011;6865;52.552;13.434;2023-07-13T03:05:40;6.20;;;4.00;;
13588;SDS011;6865;52.552;13.434;2023-07-13T03:08:09;6.70;;;3.95;;
13588;SDS011;6865;52.552;13.434;2023-07-13T03:10:36;6.75;;;4.15;;
13588;SDS011;6865;52.552;13.434;2023-07-13T03:13:04;6.55;;;3.35;;
13588;SDS011;6865;52.552;13.434;2023-07-13T03:15:31;9.68;;;4.18;;
13588;SDS011;6865;52.552;13.434;2023-07-13T03:17:58;6.45;;;3.80;;
13588;SDS011;6865;52.552;13.434;2023-07-13T03:20:24;6.28;;;3.63;;
13588;SDS011;6865;52.552;13.434;2023-07-13T03:22:51;6.03;;;3.80;;
13588;SDS011;6865;52.552;13.434;2023-07-13T03:25:18;8.63;;;3.53;;
13588;SDS011;6865;52.552;13.434;2023-07-13T03:27:44;6.50;;;3.75;;
13588;SDS011;6865;52.552;13.434;2023-07-13T03:30:11;7.22;;;4.13;;
13588;SDS011;6865;52.552;13.434;2023-07-13T03:32:38;8.57;;;3.47;;
13588;SDS011;6865;52.552;13.434;2023-07-13T03:35:05;7.00;;;3.92;;
13588;SDS011;6865;52.552;13.434;2023-07-13T03:37:32;5.85;;;3.70;;
13588;SDS011;6865;52.552;13.434;2023-07-13T03:39:58;6.18;;;3.60;;
13588;SDS011;6865;52.552;13.434;2023-07-13T03:42:25;5.05;;;3.53;;
13588;SDS011;6865;52.552;13.434;2023-07-13T03:44:52;6.50;;;3.58;;
13588;SDS011;6865;52.552;13.434;2023-07-13T03:47:19;6.28;;;3.72;;
13588;SDS011;6865;52.552;13.434;2023-07-13T03:49:45;6.22;;;4.35;;
13588;SDS011;6865;52.552;13.434;2023-07-13T03:52:12;6.18;;;3.20;;
13588;SDS011;6865;52.552;13.434;2023-07-13T03:54:39;7.97;;;3.80;;
13588;SDS011;6865;52.552;13.434;2023-07-13T03:57:06;7.03;;;3.40;;
13588;SDS011;6865;52.552;13.434;2023-07-13T03:59:32;4.28;;;3.10;;
13588;SDS011;6865;52.552;13.434;2023-07-13T04:02:00;4.15;;;2.97;;
13588;SDS011;6865;52.552;13.434;2023-07-13T04:04:27;4.70;;;3.10;;
13588;SDS011;6865;52.552;13.434;2023-07-13T04:06:54;4.68;;;2.83;;
13588;SDS011;6865;52.552;13.434;2023-07-13T04:09:21;6.03;;;3.38;;
13588;SDS011;6865;52.552;13.434;2023-07-13T04:11:48;6.30;;;3.65;;
13588;SDS011;6865;52.552;13.434;2023-07-13T04:14:14;5.25;;;3.38;;
13588;SDS011;6865;52.552;13.434;2023-07-13T04:16:41;3.80;;;2.85;;
13588;SDS011;6865;52.552;13.434;2023-07-13T04:19:09;4.53;;;3.15;;
13588;SDS011;6865;52.552;13.434;2023-07-13T04:21:36;6.28;;;3.30;;
13588;SDS011;6865;52.552;13.434;2023-07-13T04:24:03;7.95;;;3.33;;
13588;SDS011;6865;52.552;13.434;2023-07-13T04:26:30;6.28;;;3.25;;
13588;SDS011;6865;52.552;13.434;2023-07-13T04:28:57;4.85;;;3.10;;
13588;SDS011;6865;52.552;13.434;2023-07-13T04:31:24;6.63;;;3.20;;
13588;SDS011;6865;52.552;13.434;2023-07-13T04:33:51;5.43;;;2.80;;
13588;SDS011;6865;52.552;13.434;2023-07-13T04:36:17;6.22;;;3.42;;
13588;SDS011;6865;52.552;13.434;2023-07-13T04:38:44;4.32;;;3.22;;
13588;SDS011;6865;52.552;13.434;2023-07-13T04:41:12;7.60;;;4.30;;
13588;SDS011;6865;52.552;13.434;2023-07-13T04:43:39;5.90;;;3.33;;
13588;SDS011;6865;52.552;13.434;2023-07-13T04:46:07;4.90;;;3.03;;
13588;SDS011;6865;52.552;13.434;2023-07-13T04:48:37;4.25;;;3.00;;
13588;SDS011;6865;52.552;13.434;2023-07-13T04:51:04;3.85;;;2.90;;
13588;SDS011;6865;52.552;13.434;2023-07-13T04:53:32;4.32;;;2.88;;
13588;SDS011;6865;52.552;13.434;2023-07-13T04:56:01;3.80;;;3.35;;
13588;SDS011;6865;52.552;13.434;2023-07-13T04:58:28;5.53;;;2.97;;
13588;SDS011;6865;52.552;13.434;2023-07-13T05:01:04;6.18;;;3.05;;
13588;SDS011;6865;52.552;13.434;2023-07-13T05:03:32;3.92;;;2.80;;
13588;SDS011;6865;52.552;13.434;2023-07-13T05:06:01;4.47;;;2.78;;
13588;SDS011;6865;52.552;13.434;2023-07-13T05:08:30;3.70;;;2.95;;
13588;SDS011;6865;52.552;13.434;2023-07-13T05:10:58;7.75;;;3.03;;
13588;SDS011;6865;52.552;13.434;2023-07-13T05:13:26;4.10;;;3.15;;
13588;SDS011;6865;52.552;13.434;2023-07-13T05:15:59;4.63;;;3.05;;
13588;SDS011;6865;52.552;13.434;2023-07-13T05:18:28;3.80;;;2.60;;
13588;SDS011;6865;52.552;13.434;2023-07-13T05:21:00;5.15;;;2.65;;
13588;SDS011;6865;52.552;13.434;2023-07-13T05:23:32;3.70;;;2.72;;
13588;SDS011;6865;52.552;13.434;2023-07-13T05:26:00;6.90;;;3.15;;
13588;SDS011;6865;52.552;13.434;2023-07-13T05:28:27;5.28;;;3.00;;
13588;SDS011;6865;52.552;13.434;2023-07-13T05:30:55;5.60;;;2.92;;
13588;SDS011;6865;52.552;13.434;2023-07-13T05:33:23;5.28;;;2.85;;
13588;SDS011;6865;52.552;13.434;2023-07-13T05:35:50;6.82;;;3.33;;
13588;SDS011;6865;52.552;13.434;2023-07-13T05:38:17;4.55;;;3.00;;
13588;SDS011;6865;52.552;13.434;2023-07-13T05:40:44;7.10;;;3.53;;
13588;SDS011;6865;52.552;13.434;2023-07-13T05:43:11;6.72;;;3.58;;
13588;SDS011;6865;52.552;13.434;2023-07-13T05:45:39;6.05;;;3.63;;
13588;SDS011;6865;52.552;13.434;2023-07-13T05:48:06;6.10;;;3.22;;
13588;SDS011;6865;52.552;13.434;2023-07-13T05:50:33;9.80;;;3.17;;
13588;SDS011;6865;52.552;13.434;2023-07-13T05:53:00;6.95;;;3.25;;
13588;SDS011;6865;52.552;13.434;2023-07-13T05:55:26;4.43;;;3.08;;
13588;SDS011;6865;52.552;13.434;2023-07-13T05:57:53;6.35;;;3.05;;
13588;SDS011;6865;52.552;13.434;2023-07-13T06:00:20;3.90;;;2.97;;
13588;SDS011;6865;52.552;13.434;2023-07-13T06:02:46;4.22;;;2.90;;
13588;SDS011;6865;52.552;13.434;2023-07-13T06:05:13;6.05;;;2.95;;
13588;SDS011;6865;52.552;13.434;2023-07-13T06:07:40;4.78;;;2.95;;
13588;SDS011;6865;52.552;13.434;2023-07-13T06:10:08;6.57;;;2.67;;
13588;SDS011;6865;52.552;13.434;2023-07-13T06:12:35;4.43;;;2.83;;
13588;SDS011;6865;52.552;13.434;2023-07-13T06:15:02;6.25;;;3.40;;
13588;SDS011;6865;52.552;13.434;2023-07-13T06:17:29;5.07;;;2.83;;
13588;SDS011;6865;52.552;13.434;2023-07-13T06:19:57;8.10;;;3.10;;
13588;SDS011;6865;52.552;13.434;2023-07-13T06:22:23;5.32;;;3.10;;
13588;SDS011;6865;52.552;13.434;2023-07-13T06:24:50;4.68;;;2.45;;
13588;SDS011;6865;52.552;13.434;2023-07-13T06:27:17;7.05;;;2.63;;
13588;SDS011;6865;52.552;13.434;2023-07-13T06:29:44;5.32;;;2.72;;
13588;SDS011;6865;52.552;13.434;2023-07-13T06:32:11;6.03;;;3.72;;
13588;SDS011;6865;52.552;13.434;2023-07-13T06:34:38;8.02;;;4.25;;
13588;SDS011;6865;52.552;13.434;2023-07-13T06:37:08;6.53;;;3.05;;
13588;SDS011;6865;52.552;13.434;2023-07-13T06:39:36;4.95;;;2.70;;
13588;SDS011;6865;52.552;13.434;2023-07-13T06:42:02;8.75;;;2.63;;
13588;SDS011;6865;52.552;13.434;2023-07-13T06:44:30;4.53;;;2.50;;
13588;SDS011;6865;52.552;13.434;2023-07-13T06:46:57;5.30;;;2.92;;
13588;SDS011;6865;52.552;13.434;2023-07-13T06:49:24;5.43;;;2.55;;
13588;SDS011;6865;52.552;13.434;2023-07-13T06:51:50;4.50;;;2.58;;
13588;SDS011;6865;52.552;13.434;2023-07-13T06:54:17;4.78;;;2.58;;
13588;SDS011;6865;52.552;13.434;2023-07-13T06:56:44;8.30;;;3.00;;
13588;SDS011;6865;52.552;13.434;2023-07-13T06:59:11;3.78;;;2.17;;
13588;SDS011;6865;52.552;13.434;2023-07-13T07:01:37;3.95;;;2.42;;
13588;SDS011;6865;52.552;13.434;2023-07-13T07:04:07;4.00;;;2.58;;
13588;SDS011;6865;52.552;13.434;2023-07-13T07:06:34;7.35;;;2.50;;
13588;SDS011;6865;52.552;13.434;2023-07-13T07:09:01;4.45;;;2.45;;
13588;SDS011;6865;52.552;13.434;2023-07-13T07:11:28;4.75;;;2.40;;
13588;SDS011;6865;52.552;13.434;2023-07-13T07:13:55;6.43;;;2.50;;
13588;SDS011;6865;52.552;13.434;2023-07-13T07:16:21;4.57;;;2.38;;
13588;SDS011;6865;52.552;13.434;2023-07-13T07:18:50;3.80;;;2.10;;
13588;SDS011;6865;52.552;13.434;2023-07-13T07:21:17;3.80;;;2.05;;
13588;SDS011;6865;52.552;13.434;2023-07-13T07:23:43;4.88;;;2.30;;
13588;SDS011;6865;52.552;13.434;2023-07-13T07:26:10;5.10;;;3.05;;
13588;SDS011;6865;52.552;13.434;2023-07-13T07:28:37;3.83;;;2.35;;
13588;SDS011;6865;52.552;13.434;2023-07-13T07:31:09;3.75;;;2.00;;
13588;SDS011;6865;52.552;13.434;2023-07-13T07:33:39;3.88;;;1.65;;
13588;SDS011;6865;52.552;13.434;2023-07-13T07:36:05;2.88;;;1.60;;
13588;SDS011;6865;52.552;13.434;2023-07-13T07:38:35;5.53;;;2.10;;
13588;SDS011;6865;52.552;13.434;2023-07-13T07:41:03;4.57;;;2.00;;
13588;SDS011;6865;52.552;13.434;2023-07-13T07:43:33;6.28;;;2.15;;
13588;SDS011;6865;52.552;13.434;2023-07-13T07:46:03;2.42;;;1.73;;
13588;SDS011;6865;52.552;13.434;2023-07-13T07:48:30;2.78;;;1.60;;
13588;SDS011;6865;52.552;13.434;2023-07-13T07:50:57;3.22;;;1.90;;
13588;SDS011;6865;52.552;13.434;2023-07-13T07:53:24;5.47;;;2.10;;
13588;SDS011;6865;52.552;13.434;2023-07-13T07:55:50;4.30;;;1.92;;
13588;SDS011;6865;52.552;13.434;2023-07-13T07:58:20;4.07;;;1.88;;
13588;SDS011;6865;52.552;13.434;2023-07-13T08:00:50;8.48;;;2.45;;
13588;SDS011;6865;52.552;13.434;2023-07-13T08:03:19;5.60;;;1.98;;
13588;SDS011;6865;52.552;13.434;2023-07-13T08:05:52;3.35;;;2.10;;
13588;SDS011;6865;52.552;13.434;2023-07-13T08:08:22;3.15;;;1.90;;
13588;SDS011;6865;52.552;13.434;2023-07-13T08:10:49;4.18;;;2.20;;
13588;SDS011;6865;52.552;13.434;2023-07-13T08:13:15;2.80;;;1.83;;
13588;SDS011;6865;52.552;13.434;2023-07-13T08:15:43;2.67;;;1.60;;
13588;SDS011;6865;52.552;13.434;2023-07-13T08:18:10;2.78;;;1.90;;
13588;SDS011;6865;52.552;13.434;2023-07-13T08:20:37;3.42;;;1.90;;
13588;SDS011;6865;52.552;13.434;2023-07-13T08:23:06;2.33;;;1.90;;
13588;SDS011;6865;52.552;13.434;2023-07-13T08:25:34;8.02;;;2.10;;
13588;SDS011;6865;52.552;13.434;2023-07-13T08:28:02;3.67;;;1.80;;
13588;SDS011;6865;52.552;13.434;2023-07-13T08:30:29;6.80;;;1.98;;
13588;SDS011;6865;52.552;13.434;2023-07-13T08:32:56;2.90;;;2.10;;
13588;SDS011;6865;52.552;13.434;2023-07-13T08:35:23;5.05;;;1.92;;
13588;SDS011;6865;52.552;13.434;2023-07-13T08:37:51;3.75;;;1.80;;
13588;SDS011;6865;52.552;13.434;2023-07-13T08:40:18;4.68;;;2.30;;
13588;SDS011;6865;52.552;13.434;2023-07-13T08:42:52;3.45;;;2.05;;
13588;SDS011;6865;52.552;13.434;2023-07-13T08:48:11;4.82;;;1.80;;
13588;SDS011;6865;52.552;13.434;2023-07-13T08:50:49;6.50;;;2.03;;
13588;SDS011;6865;52.552;13.434;2023-07-13T08:53:29;5.55;;;2.20;;
13588;SDS011;6865;52.552;13.434;2023-07-13T08:56:11;4.18;;;2.20;;
13588;SDS011;6865;52.552;13.434;2023-07-13T08:58:45;4.40;;;1.90;;
13588;SDS011;6865;52.552;13.434;2023-07-13T09:01:18;5.68;;;2.67;;
13588;SDS011;6865;52.552;13.434;2023-07-13T09:03:58;4.03;;;2.40;;
13588;SDS011;6865;52.552;13.434;2023-07-13T09:06:40;3.72;;;1.80;;
13588;SDS011;6865;52.552;13.434;2023-07-13T09:12:19;6.45;;;2.03;;
13588;SDS011;6865;52.552;13.434;2023-07-13T09:15:26;3.22;;;1.80;;
13588;SDS011;6865;52.552;13.434;2023-07-13T09:17:59;3.10;;;1.92;;
13588;SDS011;6865;52.552;13.434;2023-07-13T09:20:37;5.47;;;2.03;;
13588;SDS011;6865;52.552;13.434;2023-07-13T09:23:14;4.75;;;1.70;;
13588;SDS011;6865;52.552;13.434;2023-07-13T09:25:44;6.80;;;1.80;;
13588;SDS011;6865;52.552;13.434;2023-07-13T09:28:19;2.45;;;1.52;;
13588;SDS011;6865;52.552;13.434;2023-07-13T09:30:56;2.67;;;1.65;;
13588;SDS011;6865;52.552;13.434;2023-07-13T09:33:29;4.38;;;1.80;;
13588;SDS011;6865;52.552;13.434;2023-07-13T09:35:57;4.35;;;2.10;;
13588;SDS011;6865;52.552;13.434;2023-07-13T09:38:26;3.83;;;1.80;;
13588;SDS011;6865;52.552;13.434;2023-07-13T09:41:13;6.18;;;2.03;;
13588;SDS011;6865;52.552;13.434;2023-07-13T09:46:44;2.42;;;1.92;;
13588;SDS011;6865;52.552;13.434;2023-07-13T09:49:13;4.72;;;2.15;;
13588;SDS011;6865;52.552;13.434;2023-07-13T09:51:40;5.57;;;2.28;;
13588;SDS011;6865;52.552;13.434;2023-07-13T09:54:18;4.05;;;1.90;;
13588;SDS011;6865;52.552;13.434;2023-07-13T09:56:46;7.57;;;2.90;;
13588;SDS011;6865;52.552;13.434;2023-07-13T09:59:23;4.70;;;2.30;;
13588;SDS011;6865;52.552;13.434;2023-07-13T10:01:53;3.47;;;2.25;;
13588;SDS011;6865;52.552;13.434;2023-07-13T10:04:27;6.68;;;2.78;;
13588;SDS011;6865;52.552;13.434;2023-07-13T10:07:06;5.15;;;2.70;;
13588;SDS011;6865;52.552;13.434;2023-07-13T10:09:54;3.78;;;2.65;;
13588;SDS011;6865;52.552;13.434;2023-07-13T10:12:22;4.03;;;2.50;;
13588;SDS011;6865;52.552;13.434;2023-07-13T10:14:51;4.43;;;2.80;;
13588;SDS011;6865;52.552;13.434;2023-07-13T10:17:33;3.80;;;2.70;;
13588;SDS011;6865;52.552;13.434;2023-07-13T10:20:03;5.85;;;2.83;;
13588;SDS011;6865;52.552;13.434;2023-07-13T10:25:21;5.63;;;2.60;;
13588;SDS011;6865;52.552;13.434;2023-07-13T10:27:50;4.82;;;2.67;;
13588;SDS011;6865;52.552;13.434;2023-07-13T10:30:39;4.75;;;2.80;;
13588;SDS011;6865;52.552;13.434;2023-07-13T10:33:10;5.85;;;2.88;;
13588;SDS011;6865;52.552;13.434;2023-07-13T10:35:39;3.70;;;2.22;;
13588;SDS011;6865;52.552;13.434;2023-07-13T10:38:13;4.75;;;2.80;;
13588;SDS011;6865;52.552;13.434;2023-07-13T10:40:55;4.60;;;2.80;;
13588;SDS011;6865;52.552;13.434;2023-07-13T10:43:36;3.00;;;2.30;;
13588;SDS011;6865;52.552;13.434;2023-07-13T10:46:13;5.30;;;2.70;;
13588;SDS011;6865;52.552;13.434;2023-07-13T10:48:42;8.20;;;2.92;;
13588;SDS011;6865;52.552;13.434;2023-07-13T10:51:13;4.30;;;2.55;;
13588;SDS011;6865;52.552;13.434;2023-07-13T10:53:41;5.90;;;2.70;;
13588;SDS011;6865;52.552;13.434;2023-07-13T10:56:19;6.93;;;3.05;;
13588;SDS011;6865;52.552;13.434;2023-07-13T10:59:10;5.57;;;3.90;;
13588;SDS011;6865;52.552;13.434;2023-07-13T11:01:48;12.95;;;3.67;;
13588;SDS011;6865;52.552;13.434;2023-07-13T11:04:42;4.10;;;2.70;;
13588;SDS011;6865;52.552;13.434;2023-07-13T11:07:32;5.65;;;2.72;;
13588;SDS011;6865;52.552;13.434;2023-07-13T11:10:46;6.82;;;4.80;;
13588;SDS011;6865;52.552;13.434;2023-07-13T11:13:38;5.13;;;2.70;;
13588;SDS011;6865;52.552;13.434;2023-07-13T11:18:51;4.35;;;2.88;;
13588;SDS011;6865;52.552;13.434;2023-07-13T11:21:31;6.03;;;3.05;;
13588;SDS011;6865;52.552;13.434;2023-07-13T11:24:03;4.35;;;2.75;;
13588;SDS011;6865;52.552;13.434;2023-07-13T11:31:41;6.15;;;2.60;;
13588;SDS011;6865;52.552;13.434;2023-07-13T11:34:12;5.07;;;2.60;;
13588;SDS011;6865;52.552;13.434;2023-07-13T11:36:44;4.30;;;2.83;;
13588;SDS011;6865;52.552;13.434;2023-07-13T11:39:13;3.35;;;2.55;;
13588;SDS011;6865;52.552;13.434;2023-07-13T11:41:54;8.38;;;2.80;;
13588;SDS011;6865;52.552;13.434;2023-07-13T11:44:25;6.60;;;2.60;;
13588;SDS011;6865;52.552;13.434;2023-07-13T11:46:54;3.85;;;2.38;;
13588;SDS011;6865;52.552;13.434;2023-07-13T11:49:29;5.90;;;2.35;;
13588;SDS011;6865;52.552;13.434;2023-07-13T11:51:59;3.47;;;2.30;;
13588;SDS011;6865;52.552;13.434;2023-07-13T11:54:28;4.28;;;2.10;;
13588;SDS011;6865;52.552;13.434;2023-07-13T11:57:02;4.43;;;2.20;;
13588;SDS011;6865;52.552;13.434;2023-07-13T11:59:38;4.28;;;2.50;;
13588;SDS011;6865;52.552;13.434;2023-07-13T12:02:14;4.82;;;2.40;;
13588;SDS011;6865;52.552;13.434;2023-07-13T12:04:49;4.15;;;2.20;;
13588;SDS011;6865;52.552;13.434;2023-07-13T12:07:18;4.72;;;2.40;;
13588;SDS011;6865;52.552;13.434;2023-07-13T12:09:46;4.03;;;2.58;;
13588;SDS011;6865;52.552;13.434;2023-07-13T12:12:14;2.58;;;2.10;;
13588;SDS011;6865;52.552;13.434;2023-07-13T12:14:45;3.33;;;2.38;;
13588;SDS011;6865;52.552;13.434;2023-07-13T12:17:15;5.32;;;2.63;;
13588;SDS011;6865;52.552;13.434;2023-07-13T12:19:44;5.38;;;2.47;;
13588;SDS011;6865;52.552;13.434;2023-07-13T12:22:13;3.78;;;2.40;;
13588;SDS011;6865;52.552;13.434;2023-07-13T12:24:42;7.32;;;2.80;;
13588;SDS011;6865;52.552;13.434;2023-07-13T12:27:16;4.05;;;2.42;;
13588;SDS011;6865;52.552;13.434;2023-07-13T12:29:50;7.00;;;2.75;;
13588;SDS011;6865;52.552;13.434;2023-07-13T12:32:27;4.15;;;2.50;;
13588;SDS011;6865;52.552;13.434;2023-07-13T12:35:15;6.47;;;2.70;;
13588;SDS011;6865;52.552;13.434;2023-07-13T12:37:47;6.18;;;2.42;;
13588;SDS011;6865;52.552;13.434;2023-07-13T12:40:17;4.60;;;2.42;;
13588;SDS011;6865;52.552;13.434;2023-07-13T12:42:46;6.55;;;2.40;;
13588;SDS011;6865;52.552;13.434;2023-07-13T12:45:18;5.85;;;1.98;;
13588;SDS011;6865;52.552;13.434;2023-07-13T12:47:50;6.25;;;2.30;;
13588;SDS011;6865;52.552;13.434;2023-07-13T12:50:21;5.22;;;2.47;;
13588;SDS011;6865;52.552;13.434;2023-07-13T12:52:51;4.78;;;2.60;;
13588;SDS011;6865;52.552;13.434;2023-07-13T12:55:20;6.30;;;2.33;;
13588;SDS011;6865;52.552;13.434;2023-07-13T12:57:54;4.82;;;2.22;;
13588;SDS011;6865;52.552;13.434;2023-07-13T13:00:29;4.68;;;2.20;;
13588;SDS011;6865;52.552;13.434;2023-07-13T13:03:02;4.65;;;2.30;;
13588;SDS011;6865;52.552;13.434;2023-07-13T13:05:56;4.55;;;2.20;;
13588;SDS011;6865;52.552;13.434;2023-07-13T13:08:25;14.95;;;1.90;;
13588;SDS011;6865;52.552;13.434;2023-07-13T13:10:52;3.85;;;1.90;;
13588;SDS011;6865;52.552;13.434;2023-07-13T13:13:19;2.88;;;1.75;;
13588;SDS011;6865;52.552;13.434;2023-07-13T13:15:46;4.25;;;2.10;;
13588;SDS011;6865;52.552;13.434;2023-07-13T13:18:17;5.53;;;2.08;;
13588;SDS011;6865;52.552;13.434;2023-07-13T13:20:45;3.38;;;1.83;;
13588;SDS011;6865;52.552;13.434;2023-07-13T13:23:16;7.22;;;2.03;;
13588;SDS011;6865;52.552;13.434;2023-07-13T13:25:45;4.65;;;1.98;;
13588;SDS011;6865;52.552;13.434;2023-07-13T13:28:17;5.65;;;2.20;;
13588;SDS011;6865;52.552;13.434;2023-07-13T13:30:47;3.70;;;1.75;;
13588;SDS011;6865;52.552;13.434;2023-07-13T13:33:15;6.22;;;1.95;;
13588;SDS011;6865;52.552;13.434;2023-07-13T13:35:45;7.70;;;2.13;;
13588;SDS011;6865;52.552;13.434;2023-07-13T13:38:12;5.45;;;2.35;;
13588;SDS011;6865;52.552;13.434;2023-07-13T13:40:42;6.97;;;2.28;;
13588;SDS011;6865;52.552;13.434;2023-07-13T13:43:16;7.82;;;1.70;;
13588;SDS011;6865;52.552;13.434;2023-07-13T13:45:44;4.53;;;2.35;;
13588;SDS011;6865;52.552;13.434;2023-07-13T13:48:19;7.63;;;2.28;;
13588;SDS011;6865;52.552;13.434;2023-07-13T13:50:56;3.78;;;1.98;;
13588;SDS011;6865;52.552;13.434;2023-07-13T13:53:24;3.83;;;2.10;;
13588;SDS011;6865;52.552;13.434;2023-07-13T13:55:50;4.22;;;1.73;;
13588;SDS011;6865;52.552;13.434;2023-07-13T13:58:19;4.68;;;1.70;;
13588;SDS011;6865;52.552;13.434;2023-07-13T14:00:46;3.92;;;2.30;;
13588;SDS011;6865;52.552;13.434;2023-07-13T14:03:18;4.40;;;2.05;;
13588;SDS011;6865;52.552;13.434;2023-07-13T14:05:46;4.35;;;2.33;;
13588;SDS011;6865;52.552;13.434;2023-07-13T14:08:17;4.38;;;2.03;;
13588;SDS011;6865;52.552;13.434;2023-07-13T14:10:46;3.58;;;2.08;;
13588;SDS011;6865;52.552;13.434;2023-07-13T14:13:19;4.53;;;2.25;;
13588;SDS011;6865;52.552;13.434;2023-07-13T14:15:53;3.75;;;1.80;;
13588;SDS011;6865;52.552;13.434;2023-07-13T14:18:20;3.38;;;1.60;;
13588;SDS011;6865;52.552;13.434;2023-07-13T14:20:47;3.28;;;1.92;;
13588;SDS011;6865;52.552;13.434;2023-07-13T14:23:15;3.47;;;2.10;;
13588;SDS011;6865;52.552;13.434;2023-07-13T14:25:44;6.65;;;1.92;;
13588;SDS011;6865;52.552;13.434;2023-07-13T14:28:19;2.97;;;1.95;;
13588;SDS011;6865;52.552;13.434;2023-07-13T14:30:48;3.95;;;1.70;;
13588;SDS011;6865;52.552;13.434;2023-07-13T14:33:16;2.78;;;1.70;;
13588;SDS011;6865;52.552;13.434;2023-07-13T14:35:43;3.38;;;1.98;;
13588;SDS011;6865;52.552;13.434;2023-07-13T14:38:15;2.58;;;1.70;;
13588;SDS011;6865;52.552;13.434;2023-07-13T14:40:44;6.60;;;2.10;;
13588;SDS011;6865;52.552;13.434;2023-07-13T14:43:11;3.65;;;2.00;;
13588;SDS011;6865;52.552;13.434;2023-07-13T14:45:48;5.70;;;1.80;;
13588;SDS011;6865;52.552;13.434;2023-07-13T14:48:18;7.05;;;3.55;;
13588;SDS011;6865;52.552;13.434;2023-07-13T14:50:49;6.88;;;2.80;;
13588;SDS011;6865;52.552;13.434;2023-07-13T14:53:20;5.28;;;3.20;;
13588;SDS011;6865;52.552;13.434;2023-07-13T14:55:48;5.82;;;2.42;;
13588;SDS011;6865;52.552;13.434;2023-07-13T14:58:15;5.85;;;2.60;;
13588;SDS011;6865;52.552;13.434;2023-07-13T15:00:42;5.35;;;1.98;;
13588;SDS011;6865;52.552;13.434;2023-07-13T15:03:23;2.63;;;2.00;;
13588;SDS011;6865;52.552;13.434;2023-07-13T15:05:51;5.28;;;2.38;;
13588;SDS011;6865;52.552;13.434;2023-07-13T15:08:19;5.97;;;2.75;;
13588;SDS011;6865;52.552;13.434;2023-07-13T15:10:46;5.28;;;2.75;;
13588;SDS011;6865;52.552;13.434;2023-07-13T15:15:41;3.63;;;1.80;;
13588;SDS011;6865;52.552;13.434;2023-07-13T15:18:11;3.55;;;2.00;;
13588;SDS011;6865;52.552;13.434;2023-07-13T15:20:40;3.13;;;1.70;;
13588;SDS011;6865;52.552;13.434;2023-07-13T15:23:08;4.47;;;1.70;;
13588;SDS011;6865;52.552;13.434;2023-07-13T15:25:36;4.53;;;1.98;;